sensor_id;sensor_type;location;lat;lon;timestamp;temperature;humidity
53208;DHT22;39093;52.788;6.940;2023-01-23T00:00:46;2.10;99.90
53208;DHT22;39093;52.788;6.940;2023-01-23T00:03:13;2.10;99.90
53208;DHT22;39093;52.788;6.940;2023-01-23T00:05:40;2.10;99.90
53208;DHT22;39093;52.788;6.940;2023-01-23T00:08:07;2.10;99.90
53208;DHT22;39093;52.788;6.940;2023-01-23T00:10:34;2.10;99.90
53208;DHT22;39093;52.788;6.940;2023-01-23T00:13:02;2.10;99.90
53208;DHT22;39093;52.788;6.940;2023-01-23T00:15:29;2.10;99.90
53208;DHT22;39093;52.788;6.940;2023-01-23T00:17:56;2.10;99.90
53208;DHT22;39093;52.788;6.940;2023-01-23T00:20:23;2.00;99.90
53208;DHT22;39093;52.788;6.940;2023-01-23T00:22:50;2.10;99.90
53208;DHT22;39093;52.788;6.940;2023-01-23T00:25:17;2.00;99.90
53208;DHT22;39093;52.788;6.940;2023-01-23T00:27:44;2.00;99.90
53208;DHT22;39093;52.788;6.940;2023-01-23T00:30:11;2.00;99.90
53208;DHT22;39093;52.788;6.940;2023-01-23T00:32:39;2.10;99.90
53208;DHT22;39093;52.788;6.940;2023-01-23T00:35:06;2.10;99.90
53208;DHT22;39093;52.788;6.940;2023-01-23T00:37:33;2.10;99.90
53208;DHT22;39093;52.788;6.940;2023-01-23T00:40:00;2.10;99.90
53208;DHT22;39093;52.788;6.940;2023-01-23T00:42:27;2.10;99.90
53208;DHT22;39093;52.788;6.940;2023-01-23T00:44:54;2.10;99.90
53208;DHT22;39093;52.788;6.940;2023-01-23T00:47:21;2.10;99.90
53208;DHT22;39093;52.788;6.940;2023-01-23T00:49:48;2.10;99.90
53208;DHT22;39093;52.788;6.940;2023-01-23T00:52:15;2.10;99.90
53208;DHT22;39093;52.788;6.940;2023-01-23T00:54:42;2.10;99.90
53208;DHT22;39093;52.788;6.940;2023-01-23T00:57:08;2.10;99.90
53208;DHT22;39093;52.788;6.940;2023-01-23T00:59:35;2.10;99.90
53208;DHT22;39093;52.788;6.940;2023-01-23T01:02:02;2.10;99.90
53208;DHT22;39093;52.788;6.940;2023-01-23T01:04:29;2.10;99.90
53208;DHT22;39093;52.788;6.940;2023-01-23T01:06:56;2.10;99.90
53208;DHT22;39093;52.788;6.940;2023-01-23T01:09:23;2.10;99.90
53208;DHT22;39093;52.788;6.940;2023-01-23T01:11:50;2.10;99.90
53208;DHT22;39093;52.788;6.940;2023-01-23T01:14:17;2.10;99.90
53208;DHT22;39093;52.788;6.940;2023-01-23T01:16:44;2.10;99.90
53208;DHT22;39093;52.788;6.940;2023-01-23T01:19:13;2.10;99.90
53208;DHT22;39093;52.788;6.940;2023-01-23T01:21:41;2.10;99.90
53208;DHT22;39093;52.788;6.940;2023-01-23T01:24:08;2.10;99.90
53208;DHT22;39093;52.788;6.940;2023-01-23T01:26:35;2.10;99.90
53208;DHT22;39093;52.788;6.940;2023-01-23T01:29:03;2.20;99.90
53208;DHT22;39093;52.788;6.940;2023-01-23T01:31:32;2.20;99.90
53208;DHT22;39093;52.788;6.940;2023-01-23T01:33:59;2.10;99.90
53208;DHT22;39093;52.788;6.940;2023-01-23T01:36:26;2.10;99.90
53208;DHT22;39093;52.788;6.940;2023-01-23T01:38:53;2.20;99.90
53208;DHT22;39093;52.788;6.940;2023-01-23T01:41:20;2.10;99.90
53208;DHT22;39093;52.788;6.940;2023-01-23T01:43:47;1.70;99.90
53208;DHT22;39093;52.788;6.940;2023-01-23T01:52:05;2.20;99.90
53208;DHT22;39093;52.788;6.940;2023-01-23T01:54:43;2.10;99.90
53208;DHT22;39093;52.788;6.940;2023-01-23T02:00:16;2.20;99.90
53208;DHT22;39093;52.788;6.940;2023-01-23T02:02:48;2.20;99.90
53208;DHT22;39093;52.788;6.940;2023-01-23T02:05:40;2.20;99.90
53208;DHT22;39093;52.788;6.940;2023-01-23T02:08:29;2.20;99.90
53208;DHT22;39093;52.788;6.940;2023-01-23T02:10:57;2.20;99.90
53208;DHT22;39093;52.788;6.940;2023-01-23T02:13:33;2.20;99.90
53208;DHT22;39093;52.788;6.940;2023-01-23T02:16:11;2.20;99.90
53208;DHT22;39093;52.788;6.940;2023-01-23T02:18:44;2.40;99.90
53208;DHT22;39093;52.788;6.940;2023-01-23T02:21:15;2.20;99.90
53208;DHT22;39093;52.788;6.940;2023-01-23T02:26:22;2.20;99.90
53208;DHT22;39093;52.788;6.940;2023-01-23T02:28:51;2.20;99.90
53208;DHT22;39093;52.788;6.940;2023-01-23T02:31:19;2.20;99.90
53208;DHT22;39093;52.788;6.940;2023-01-23T02:33:49;2.20;99.90
53208;DHT22;39093;52.788;6.940;2023-01-23T02:36:18;2.20;99.90
53208;DHT22;39093;52.788;6.940;2023-01-23T02:41:30;2.20;99.90
53208;DHT22;39093;52.788;6.940;2023-01-23T02:44:01;2.20;99.90
53208;DHT22;39093;52.788;6.940;2023-01-23T02:46:30;2.20;99.90
53208;DHT22;39093;52.788;6.940;2023-01-23T02:48:57;2.20;99.90
53208;DHT22;39093;52.788;6.940;2023-01-23T02:51:24;2.20;99.90
53208;DHT22;39093;52.788;6.940;2023-01-23T02:53:51;2.20;99.90
53208;DHT22;39093;52.788;6.940;2023-01-23T02:56:18;2.20;99.90
53208;DHT22;39093;52.788;6.940;2023-01-23T02:58:46;2.20;99.90
53208;DHT22;39093;52.788;6.940;2023-01-23T03:01:31;2.20;99.90
53208;DHT22;39093;52.788;6.940;2023-01-23T03:04:02;2.20;99.90
53208;DHT22;39093;52.788;6.940;2023-01-23T03:06:34;2.20;99.90
53208;DHT22;39093;52.788;6.940;2023-01-23T03:09:07;2.20;99.90
53208;DHT22;39093;52.788;6.940;2023-01-23T03:11:37;2.20;99.90
53208;DHT22;39093;52.788;6.940;2023-01-23T03:14:10;2.20;99.90
53208;DHT22;39093;52.788;6.940;2023-01-23T03:16:37;2.20;99.90
53208;DHT22;39093;52.788;6.940;2023-01-23T03:19:06;2.20;99.90
53208;DHT22;39093;52.788;6.940;2023-01-23T03:21:37;2.20;99.90
53208;DHT22;39093;52.788;6.940;2023-01-23T03:24:07;2.20;99.90
53208;DHT22;39093;52.788;6.940;2023-01-23T03:26:38;2.20;99.90
53208;DHT22;39093;52.788;6.940;2023-01-23T03:29:06;2.20;99.90
53208;DHT22;39093;52.788;6.940;2023-01-23T03:31:52;2.20;99.90
53208;DHT22;39093;52.788;6.940;2023-01-23T03:34:19;2.20;99.90
53208;DHT22;39093;52.788;6.940;2023-01-23T03:36:47;2.20;99.90
53208;DHT22;39093;52.788;6.940;2023-01-23T03:39:17;2.20;99.90
53208;DHT22;39093;52.788;6.940;2023-01-23T03:42:03;2.70;99.90
53208;DHT22;39093;52.788;6.940;2023-01-23T03:44:29;2.20;99.90
53208;DHT22;39093;52.788;6.940;2023-01-23T03:46:56;2.20;99.90
53208;DHT22;39093;52.788;6.940;2023-01-23T03:49:23;2.20;99.90
53208;DHT22;39093;52.788;6.940;2023-01-23T03:51:50;2.20;99.90
53208;DHT22;39093;52.788;6.940;2023-01-23T03:54:17;2.20;99.90
53208;DHT22;39093;52.788;6.940;2023-01-23T03:56:44;2.20;99.90
53208;DHT22;39093;52.788;6.940;2023-01-23T03:59:11;2.20;99.90
53208;DHT22;39093;52.788;6.940;2023-01-23T04:01:39;2.20;99.90
53208;DHT22;39093;52.788;6.940;2023-01-23T04:04:06;2.20;99.90
53208;DHT22;39093;52.788;6.940;2023-01-23T04:06:33;2.20;99.90
53208;DHT22;39093;52.788;6.940;2023-01-23T04:09:00;2.20;99.90
53208;DHT22;39093;52.788;6.940;2023-01-23T04:11:27;2.20;99.90
53208;DHT22;39093;52.788;6.940;2023-01-23T04:13:54;2.20;99.90
53208;DHT22;39093;52.788;6.940;2023-01-23T04:16:21;2.20;99.90
53208;DHT22;39093;52.788;6.940;2023-01-23T04:18:49;2.20;99.90
53208;DHT22;39093;52.788;6.940;2023-01-23T04:21:16;2.30;99.90
53208;DHT22;39093;52.788;6.940;2023-01-23T04:23:43;2.20;99.90
53208;DHT22;39093;52.788;6.940;2023-01-23T04:26:11;2.20;99.90
53208;DHT22;39093;52.788;6.940;2023-01-23T04:28:37;2.20;99.90
53208;DHT22;39093;52.788;6.940;2023-01-23T04:31:04;2.20;99.90
53208;DHT22;39093;52.788;6.940;2023-01-23T04:33:31;2.20;99.90
53208;DHT22;39093;52.788;6.940;2023-01-23T04:36:00;2.50;99.90
53208;DHT22;39093;52.788;6.940;2023-01-23T04:38:28;2.20;99.90
53208;DHT22;39093;52.788;6.940;2023-01-23T04:40:55;2.20;99.90
53208;DHT22;39093;52.788;6.940;2023-01-23T04:43:22;2.20;99.90
53208;DHT22;39093;52.788;6.940;2023-01-23T04:45:51;2.20;99.90
53208;DHT22;39093;52.788;6.940;2023-01-23T04:48:18;2.20;99.90
53208;DHT22;39093;52.788;6.940;2023-01-23T04:50:48;2.20;99.90
53208;DHT22;39093;52.788;6.940;2023-01-23T04:53:15;2.20;99.90
53208;DHT22;39093;52.788;6.940;2023-01-23T04:55:45;2.20;99.90
53208;DHT22;39093;52.788;6.940;2023-01-23T04:58:12;2.20;99.90
53208;DHT22;39093;52.788;6.940;2023-01-23T05:00:38;2.20;99.90
53208;DHT22;39093;52.788;6.940;2023-01-23T05:03:06;2.20;99.90
53208;DHT22;39093;52.788;6.940;2023-01-23T05:05:33;2.30;99.90
53208;DHT22;39093;52.788;6.940;2023-01-23T05:08:00;2.30;99.90
53208;DHT22;39093;52.788;6.940;2023-01-23T05:10:27;2.50;99.90
53208;DHT22;39093;52.788;6.940;2023-01-23T05:12:54;2.40;99.90
53208;DHT22;39093;52.788;6.940;2023-01-23T05:15:21;2.20;99.90
53208;DHT22;39093;52.788;6.940;2023-01-23T05:17:48;2.20;99.90
53208;DHT22;39093;52.788;6.940;2023-01-23T05:20:15;2.20;99.90
53208;DHT22;39093;52.788;6.940;2023-01-23T05:22:42;2.20;99.90
53208;DHT22;39093;52.788;6.940;2023-01-23T05:25:23;2.20;99.90
53208;DHT22;39093;52.788;6.940;2023-01-23T05:27:51;2.20;99.90
53208;DHT22;39093;52.788;6.940;2023-01-23T05:30:20;2.20;99.90
53208;DHT22;39093;52.788;6.940;2023-01-23T05:32:48;2.30;99.90
53208;DHT22;39093;52.788;6.940;2023-01-23T05:35:15;2.40;99.90
53208;DHT22;39093;52.788;6.940;2023-01-23T05:37:42;2.20;99.90
53208;DHT22;39093;52.788;6.940;2023-01-23T05:40:11;2.20;99.90
53208;DHT22;39093;52.788;6.940;2023-01-23T05:42:38;2.20;99.90
53208;DHT22;39093;52.788;6.940;2023-01-23T05:45:06;2.20;99.90
53208;DHT22;39093;52.788;6.940;2023-01-23T05:47:33;2.20;99.90
53208;DHT22;39093;52.788;6.940;2023-01-23T05:50:00;2.20;99.90
53208;DHT22;39093;52.788;6.940;2023-01-23T05:52:27;2.20;99.90
53208;DHT22;39093;52.788;6.940;2023-01-23T05:54:54;2.20;99.90
53208;DHT22;39093;52.788;6.940;2023-01-23T05:57:22;2.20;99.90
53208;DHT22;39093;52.788;6.940;2023-01-23T05:59:48;2.20;99.90
53208;DHT22;39093;52.788;6.940;2023-01-23T06:02:15;2.20;99.90
53208;DHT22;39093;52.788;6.940;2023-01-23T06:04:45;2.20;99.90
53208;DHT22;39093;52.788;6.940;2023-01-23T06:07:12;2.20;99.90
53208;DHT22;39093;52.788;6.940;2023-01-23T06:09:40;2.20;99.90
53208;DHT22;39093;52.788;6.940;2023-01-23T06:12:08;2.20;99.90
53208;DHT22;39093;52.788;6.940;2023-01-23T06:14:35;2.20;99.90
53208;DHT22;39093;52.788;6.940;2023-01-23T06:17:03;2.20;99.90
53208;DHT22;39093;52.788;6.940;2023-01-23T06:19:30;2.20;99.90
53208;DHT22;39093;52.788;6.940;2023-01-23T06:21:57;2.30;99.90
53208;DHT22;39093;52.788;6.940;2023-01-23T06:24:24;2.30;99.90
53208;DHT22;39093;52.788;6.940;2023-01-23T06:26:51;2.20;99.90
53208;DHT22;39093;52.788;6.940;2023-01-23T06:29:18;2.20;99.90
53208;DHT22;39093;52.788;6.940;2023-01-23T06:31:45;2.30;99.90
53208;DHT22;39093;52.788;6.940;2023-01-23T06:34:13;2.20;99.90
53208;DHT22;39093;52.788;6.940;2023-01-23T06:36:43;2.20;99.90
53208;DHT22;39093;52.788;6.940;2023-01-23T06:39:13;2.20;99.90
53208;DHT22;39093;52.788;6.940;2023-01-23T06:41:41;2.20;99.90
53208;DHT22;39093;52.788;6.940;2023-01-23T06:44:08;2.40;99.90
53208;DHT22;39093;52.788;6.940;2023-01-23T06:46:35;2.40;99.90
53208;DHT22;39093;52.788;6.940;2023-01-23T06:49:03;2.20;99.90
53208;DHT22;39093;52.788;6.940;2023-01-23T06:51:32;2.20;99.90
53208;DHT22;39093;52.788;6.940;2023-01-23T06:53:59;2.20;99.90
53208;DHT22;39093;52.788;6.940;2023-01-23T06:56:26;2.20;99.90
53208;DHT22;39093;52.788;6.940;2023-01-23T06:58:53;2.20;99.90
53208;DHT22;39093;52.788;6.940;2023-01-23T07:01:19;2.20;99.90
53208;DHT22;39093;52.788;6.940;2023-01-23T07:03:47;2.20;99.90
53208;DHT22;39093;52.788;6.940;2023-01-23T07:06:14;2.20;99.90
53208;DHT22;39093;52.788;6.940;2023-01-23T07:08:42;2.20;99.90
53208;DHT22;39093;52.788;6.940;2023-01-23T07:11:10;2.40;99.90
53208;DHT22;39093;52.788;6.940;2023-01-23T07:13:37;2.20;99.90
53208;DHT22;39093;52.788;6.940;2023-01-23T07:16:04;2.20;99.90
53208;DHT22;39093;52.788;6.940;2023-01-23T07:18:31;2.20;99.90
53208;DHT22;39093;52.788;6.940;2023-01-23T07:20:59;2.20;99.90
53208;DHT22;39093;52.788;6.940;2023-01-23T07:23:26;2.20;99.90
53208;DHT22;39093;52.788;6.940;2023-01-23T07:26:01;2.20;99.90
53208;DHT22;39093;52.788;6.940;2023-01-23T07:28:29;2.20;99.90
53208;DHT22;39093;52.788;6.940;2023-01-23T07:30:57;2.20;99.90
53208;DHT22;39093;52.788;6.940;2023-01-23T07:33:25;2.20;99.90
53208;DHT22;39093;52.788;6.940;2023-01-23T07:35:52;2.20;99.90
53208;DHT22;39093;52.788;6.940;2023-01-23T07:38:19;2.20;99.90
53208;DHT22;39093;52.788;6.940;2023-01-23T07:40:59;2.20;99.90
53208;DHT22;39093;52.788;6.940;2023-01-23T07:43:26;2.20;99.90
53208;DHT22;39093;52.788;6.940;2023-01-23T07:45:53;2.20;99.90
53208;DHT22;39093;52.788;6.940;2023-01-23T07:48:20;2.20;99.90
53208;DHT22;39093;52.788;6.940;2023-01-23T07:50:47;2.30;99.90
53208;DHT22;39093;52.788;6.940;2023-01-23T07:53:14;2.20;99.90
53208;DHT22;39093;52.788;6.940;2023-01-23T07:55:41;2.20;99.90
53208;DHT22;39093;52.788;6.940;2023-01-23T07:58:08;2.40;99.90
53208;DHT22;39093;52.788;6.940;2023-01-23T08:00:34;2.30;99.90
53208;DHT22;39093;52.788;6.940;2023-01-23T08:03:01;2.20;99.90
53208;DHT22;39093;52.788;6.940;2023-01-23T08:05:28;2.30;99.90
53208;DHT22;39093;52.788;6.940;2023-01-23T08:07:55;2.30;99.90
53208;DHT22;39093;52.788;6.940;2023-01-23T08:10:39;2.30;99.90
53208;DHT22;39093;52.788;6.940;2023-01-23T08:13:06;2.30;99.90
53208;DHT22;39093;52.788;6.940;2023-01-23T08:15:33;2.30;99.90
53208;DHT22;39093;52.788;6.940;2023-01-23T08:18:00;2.30;99.90
53208;DHT22;39093;52.788;6.940;2023-01-23T08:20:27;2.30;99.90
53208;DHT22;39093;52.788;6.940;2023-01-23T08:22:54;2.30;99.90
53208;DHT22;39093;52.788;6.940;2023-01-23T08:25:21;2.50;99.90
53208;DHT22;39093;52.788;6.940;2023-01-23T08:27:48;2.40;99.90
53208;DHT22;39093;52.788;6.940;2023-01-23T08:30:15;2.30;99.90
53208;DHT22;39093;52.788;6.940;2023-01-23T08:32:43;2.30;99.90
53208;DHT22;39093;52.788;6.940;2023-01-23T08:35:10;2.30;99.90
53208;DHT22;39093;52.788;6.940;2023-01-23T08:37:37;2.30;99.90
53208;DHT22;39093;52.788;6.940;2023-01-23T08:40:04;2.30;99.90
53208;DHT22;39093;52.788;6.940;2023-01-23T08:42:31;2.40;99.90
53208;DHT22;39093;52.788;6.940;2023-01-23T08:44:58;2.40;99.90
53208;DHT22;39093;52.788;6.940;2023-01-23T08:47:25;2.60;99.90
53208;DHT22;39093;52.788;6.940;2023-01-23T08:49:52;2.50;99.90
53208;DHT22;39093;52.788;6.940;2023-01-23T08:52:19;2.50;99.90
53208;DHT22;39093;52.788;6.940;2023-01-23T08:54:46;2.50;99.90
53208;DHT22;39093;52.788;6.940;2023-01-23T08:57:13;2.50;99.90
53208;DHT22;39093;52.788;6.940;2023-01-23T08:59:41;2.60;99.90
53208;DHT22;39093;52.788;6.940;2023-01-23T09:02:11;2.50;99.90
53208;DHT22;39093;52.788;6.940;2023-01-23T09:04:38;2.60;99.90
53208;DHT22;39093;52.788;6.940;2023-01-23T09:07:05;2.60;99.90
53208;DHT22;39093;52.788;6.940;2023-01-23T09:09:32;2.50;99.90
53208;DHT22;39093;52.788;6.940;2023-01-23T09:11:59;2.60;99.90
53208;DHT22;39093;52.788;6.940;2023-01-23T09:14:26;2.60;99.90
53208;DHT22;39093;52.788;6.940;2023-01-23T09:16:53;2.70;99.90
53208;DHT22;39093;52.788;6.940;2023-01-23T09:19:20;2.60;99.90
53208;DHT22;39093;52.788;6.940;2023-01-23T09:21:47;2.60;99.90
53208;DHT22;39093;52.788;6.940;2023-01-23T09:24:16;2.90;99.90
53208;DHT22;39093;52.788;6.940;2023-01-23T09:26:43;2.70;99.90
53208;DHT22;39093;52.788;6.940;2023-01-23T09:29:10;2.60;99.90
53208;DHT22;39093;52.788;6.940;2023-01-23T09:31:39;2.70;99.90
53208;DHT22;39093;52.788;6.940;2023-01-23T09:34:06;2.70;99.90
53208;DHT22;39093;52.788;6.940;2023-01-23T09:36:33;2.70;99.90
53208;DHT22;39093;52.788;6.940;2023-01-23T09:39:09;2.70;99.90
53208;DHT22;39093;52.788;6.940;2023-01-23T09:41:37;2.70;99.90
53208;DHT22;39093;52.788;6.940;2023-01-23T09:44:11;2.70;99.90
53208;DHT22;39093;52.788;6.940;2023-01-23T09:46:52;2.80;99.90
53208;DHT22;39093;52.788;6.940;2023-01-23T09:49:24;2.70;99.90
53208;DHT22;39093;52.788;6.940;2023-01-23T09:51:55;2.80;99.90
53208;DHT22;39093;52.788;6.940;2023-01-23T09:57:00;3.00;99.90
53208;DHT22;39093;52.788;6.940;2023-01-23T09:59:35;2.80;99.90
53208;DHT22;39093;52.788;6.940;2023-01-23T10:02:21;2.80;99.90
53208;DHT22;39093;52.788;6.940;2023-01-23T10:04:52;2.90;99.90
53208;DHT22;39093;52.788;6.940;2023-01-23T10:15:57;2.90;99.90
53208;DHT22;39093;52.788;6.940;2023-01-23T10:18:24;2.90;99.90
53208;DHT22;39093;52.788;6.940;2023-01-23T10:21:26;3.00;99.90
53208;DHT22;39093;52.788;6.940;2023-01-23T10:24:14;3.00;99.90
53208;DHT22;39093;52.788;6.940;2023-01-23T10:26:48;3.00;99.90
53208;DHT22;39093;52.788;6.940;2023-01-23T10:29:24;3.10;99.90
53208;DHT22;39093;52.788;6.940;2023-01-23T10:31:55;3.00;99.90
53208;DHT22;39093;52.788;6.940;2023-01-23T10:34:42;3.00;99.90
53208;DHT22;39093;52.788;6.940;2023-01-23T10:39:58;3.00;99.90
53208;DHT22;39093;52.788;6.940;2023-01-23T10:42:26;3.10;99.90
53208;DHT22;39093;52.788;6.940;2023-01-23T10:44:53;3.20;99.90
53208;DHT22;39093;52.788;6.940;2023-01-23T10:47:42;3.10;99.90
53208;DHT22;39093;52.788;6.940;2023-01-23T10:50:11;3.10;99.90
53208;DHT22;39093;52.788;6.940;2023-01-23T10:52:42;3.10;99.90
53208;DHT22;39093;52.788;6.940;2023-01-23T10:57:48;3.10;99.90
53208;DHT22;39093;52.788;6.940;2023-01-23T11:02:52;3.20;99.90
53208;DHT22;39093;52.788;6.940;2023-01-23T11:05:40;3.10;99.90
53208;DHT22;39093;52.788;6.940;2023-01-23T11:08:33;3.20;99.90
53208;DHT22;39093;52.788;6.940;2023-01-23T11:13:42;3.30;99.90
53208;DHT22;39093;52.788;6.940;2023-01-23T11:16:22;3.40;99.90
53208;DHT22;39093;52.788;6.940;2023-01-23T11:19:16;3.40;99.90
53208;DHT22;39093;52.788;6.940;2023-01-23T11:27:21;3.50;99.90
53208;DHT22;39093;52.788;6.940;2023-01-23T11:30:29;3.60;99.90
53208;DHT22;39093;52.788;6.940;2023-01-23T11:33:00;3.60;99.90
53208;DHT22;39093;52.788;6.940;2023-01-23T11:35:57;3.60;99.90
53208;DHT22;39093;52.788;6.940;2023-01-23T11:38:29;3.60;99.90
53208;DHT22;39093;52.788;6.940;2023-01-23T11:41:01;3.60;99.90
53208;DHT22;39093;52.788;6.940;2023-01-23T11:43:28;3.60;99.90
53208;DHT22;39093;52.788;6.940;2023-01-23T11:49:11;3.60;99.90
53208;DHT22;39093;52.788;6.940;2023-01-23T11:51:55;3.60;99.90
53208;DHT22;39093;52.788;6.940;2023-01-23T11:57:48;3.60;99.90
53208;DHT22;39093;52.788;6.940;2023-01-23T12:06:28;3.60;99.90
53208;DHT22;39093;52.788;6.940;2023-01-23T12:22:55;3.70;99.90
53208;DHT22;39093;52.788;6.940;2023-01-23T12:25:39;3.70;99.90
53208;DHT22;39093;52.788;6.940;2023-01-23T12:31:00;3.80;99.90
53208;DHT22;39093;52.788;6.940;2023-01-23T12:36:57;3.80;99.90
53208;DHT22;39093;52.788;6.940;2023-01-23T12:42:17;3.90;99.90
53208;DHT22;39093;52.788;6.940;2023-01-23T12:50:22;3.90;99.90
53208;DHT22;39093;52.788;6.940;2023-01-23T12:52:58;3.90;99.90
53208;DHT22;39093;52.788;6.940;2023-01-23T12:55:35;3.90;99.90
53208;DHT22;39093;52.788;6.940;2023-01-23T12:58:04;3.90;99.90
53208;DHT22;39093;52.788;6.940;2023-01-23T13:01:00;3.90;99.90
53208;DHT22;39093;52.788;6.940;2023-01-23T13:11:57;3.90;99.90
53208;DHT22;39093;52.788;6.940;2023-01-23T13:17:36;3.90;99.90
53208;DHT22;39093;52.788;6.940;2023-01-23T13:20:22;3.90;99.90
53208;DHT22;39093;52.788;6.940;2023-01-23T13:28:45;4.00;99.90
53208;DHT22;39093;52.788;6.940;2023-01-23T13:33:50;3.90;99.90
53208;DHT22;39093;52.788;6.940;2023-01-23T13:53:53;4.00;99.90
53208;DHT22;39093;52.788;6.940;2023-01-23T13:56:53;4.00;99.90
53208;DHT22;39093;52.788;6.940;2023-01-23T13:59:40;3.90;99.90
53208;DHT22;39093;52.788;6.940;2023-01-23T14:05:31;3.90;99.90
53208;DHT22;39093;52.788;6.940;2023-01-23T14:08:19;4.00;99.90
53208;DHT22;39093;52.788;6.940;2023-01-23T14:11:00;3.90;99.90
53208;DHT22;39093;52.788;6.940;2023-01-23T14:13:52;4.00;99.90
53208;DHT22;39093;52.788;6.940;2023-01-23T14:16:56;3.90;99.90
53208;DHT22;39093;52.788;6.940;2023-01-23T14:20:05;4.00;99.90
53208;DHT22;39093;52.788;6.940;2023-01-23T14:22:31;3.90;99.90
53208;DHT22;39093;52.788;6.940;2023-01-23T14:24:59;3.90;99.90
53208;DHT22;39093;52.788;6.940;2023-01-23T14:30:02;3.90;99.90
53208;DHT22;39093;52.788;6.940;2023-01-23T14:32:32;3.90;99.90
53208;DHT22;39093;52.788;6.940;2023-01-23T14:34:59;3.90;99.90
53208;DHT22;39093;52.788;6.940;2023-01-23T14:37:27;3.90;99.90
53208;DHT22;39093;52.788;6.940;2023-01-23T14:39:56;4.10;99.90
53208;DHT22;39093;52.788;6.940;2023-01-23T14:42:32;3.80;99.90
53208;DHT22;39093;52.788;6.940;2023-01-23T14:45:01;3.90;99.90
53208;DHT22;39093;52.788;6.940;2023-01-23T14:47:33;3.80;99.90
53208;DHT22;39093;52.788;6.940;2023-01-23T14:50:29;3.90;99.90
53208;DHT22;39093;52.788;6.940;2023-01-23T14:53:25;3.80;99.90
53208;DHT22;39093;52.788;6.940;2023-01-23T14:55:51;4.10;99.90
53208;DHT22;39093;52.788;6.940;2023-01-23T14:58:22;3.80;99.90
53208;DHT22;39093;52.788;6.940;2023-01-23T15:00:53;3.90;99.90
53208;DHT22;39093;52.788;6.940;2023-01-23T15:03:35;3.80;99.90
53208;DHT22;39093;52.788;6.940;2023-01-23T15:06:13;3.70;99.90
53208;DHT22;39093;52.788;6.940;2023-01-23T15:08:40;3.70;99.90
53208;DHT22;39093;52.788;6.940;2023-01-23T15:11:08;3.80;99.90
53208;DHT22;39093;52.788;6.940;2023-01-23T15:13:48;3.70;99.90
53208;DHT22;39093;52.788;6.940;2023-01-23T15:16:20;3.70;99.90
53208;DHT22;39093;52.788;6.940;2023-01-23T15:19:36;3.70;99.90
53208;DHT22;39093;52.788;6.940;2023-01-23T15:21:43;3.70;99.90
53208;DHT22;39093;52.788;6.940;2023-01-23T15:26:45;3.60;99.90
53208;DHT22;39093;52.788;6.940;2023-01-23T15:29:21;3.60;99.90
53208;DHT22;39093;52.788;6.940;2023-01-23T15:31:52;3.60;99.90
53208;DHT22;39093;52.788;6.940;2023-01-23T15:34:29;3.20;99.90
53208;DHT22;39093;52.788;6.940;2023-01-23T15:42:32;3.60;99.90
53208;DHT22;39093;52.788;6.940;2023-01-23T15:45:00;3.50;99.90
53208;DHT22;39093;52.788;6.940;2023-01-23T15:47:31;3.60;99.90
53208;DHT22;39093;52.788;6.940;2023-01-23T15:49:58;3.50;99.90
53208;DHT22;39093;52.788;6.940;2023-01-23T15:55:12;3.50;99.90
53208;DHT22;39093;52.788;6.940;2023-01-23T15:57:40;3.60;99.90
53208;DHT22;39093;52.788;6.940;2023-01-23T16:00:21;3.50;99.90
53208;DHT22;39093;52.788;6.940;2023-01-23T16:02:54;3.50;99.90
53208;DHT22;39093;52.788;6.940;2023-01-23T16:05:35;3.50;99.90
53208;DHT22;39093;52.788;6.940;2023-01-23T16:08:02;3.40;99.90
53208;DHT22;39093;52.788;6.940;2023-01-23T16:10:36;3.40;99.90
53208;DHT22;39093;52.788;6.940;2023-01-23T16:13:03;3.40;99.90
53208;DHT22;39093;52.788;6.940;2023-01-23T16:15:32;3.40;99.90
53208;DHT22;39093;52.788;6.940;2023-01-23T16:18:00;3.70;99.90
53208;DHT22;39093;52.788;6.940;2023-01-23T16:20:41;3.50;99.90
53208;DHT22;39093;52.788;6.940;2023-01-23T16:23:17;3.40;99.90
53208;DHT22;39093;52.788;6.940;2023-01-23T16:25:45;3.40;99.90
53208;DHT22;39093;52.788;6.940;2023-01-23T16:30:42;3.30;99.90
53208;DHT22;39093;52.788;6.940;2023-01-23T16:33:10;3.30;99.90
53208;DHT22;39093;52.788;6.940;2023-01-23T16:35:37;3.30;99.90
53208;DHT22;39093;52.788;6.940;2023-01-23T16:38:04;3.30;99.90
53208;DHT22;39093;52.788;6.940;2023-01-23T16:40:32;3.30;99.90
53208;DHT22;39093;52.788;6.940;2023-01-23T16:43:00;3.30;99.90
53208;DHT22;39093;52.788;6.940;2023-01-23T16:45:30;3.70;99.90
53208;DHT22;39093;52.788;6.940;2023-01-23T16:47:57;3.30;99.90
53208;DHT22;39093;52.788;6.940;2023-01-23T16:50:33;3.70;99.90
53208;DHT22;39093;52.788;6.940;2023-01-23T16:53:24;3.60;99.90
53208;DHT22;39093;52.788;6.940;2023-01-23T16:55:57;3.30;99.90
53208;DHT22;39093;52.788;6.940;2023-01-23T16:58:27;3.30;99.90
53208;DHT22;39093;52.788;6.940;2023-01-23T17:01:01;3.20;99.90
53208;DHT22;39093;52.788;6.940;2023-01-23T17:03:32;3.20;99.90
53208;DHT22;39093;52.788;6.940;2023-01-23T17:06:01;3.20;99.90
53208;DHT22;39093;52.788;6.940;2023-01-23T17:08:28;3.20;99.90
53208;DHT22;39093;52.788;6.940;2023-01-23T17:10:57;3.20;99.90
53208;DHT22;39093;52.788;6.940;2023-01-23T17:13:26;3.20;99.90
53208;DHT22;39093;52.788;6.940;2023-01-23T17:15:55;3.20;99.90
53208;DHT22;39093;52.788;6.940;2023-01-23T17:18:25;3.20;99.90
53208;DHT22;39093;52.788;6.940;2023-01-23T17:20:53;3.20;99.90
53208;DHT22;39093;52.788;6.940;2023-01-23T17:23:21;3.20;99.90
53208;DHT22;39093;52.788;6.940;2023-01-23T17:25:49;3.20;99.90
53208;DHT22;39093;52.788;6.940;2023-01-23T17:28:26;3.20;99.90
53208;DHT22;39093;52.788;6.940;2023-01-23T17:30:54;3.20;99.90
53208;DHT22;39093;52.788;6.940;2023-01-23T17:33:26;3.20;99.90
53208;DHT22;39093;52.788;6.940;2023-01-23T17:35:54;3.20;99.90
53208;DHT22;39093;52.788;6.940;2023-01-23T17:38:26;3.20;99.90
53208;DHT22;39093;52.788;6.940;2023-01-23T17:40:56;3.20;99.90
53208;DHT22;39093;52.788;6.940;2023-01-23T17:43:23;3.20;99.90
53208;DHT22;39093;52.788;6.940;2023-01-23T17:45:50;3.30;99.90
53208;DHT22;39093;52.788;6.940;2023-01-23T17:48:26;3.20;99.90
53208;DHT22;39093;52.788;6.940;2023-01-23T17:50:57;4.00;99.90
53208;DHT22;39093;52.788;6.940;2023-01-23T17:53:24;3.60;99.90
53208;DHT22;39093;52.788;6.940;2023-01-23T17:55:53;3.60;99.90
53208;DHT22;39093;52.788;6.940;2023-01-23T17:58:20;3.20;99.90
53208;DHT22;39093;52.788;6.940;2023-01-23T18:00:49;3.20;99.90
53208;DHT22;39093;52.788;6.940;2023-01-23T18:03:22;3.20;99.90
53208;DHT22;39093;52.788;6.940;2023-01-23T18:05:50;3.10;99.90
53208;DHT22;39093;52.788;6.940;2023-01-23T18:08:19;3.20;99.90
53208;DHT22;39093;52.788;6.940;2023-01-23T18:10:51;3.20;99.90
53208;DHT22;39093;52.788;6.940;2023-01-23T18:13:39;3.10;99.90
53208;DHT22;39093;52.788;6.940;2023-01-23T18:16:23;3.10;99.90
53208;DHT22;39093;52.788;6.940;2023-01-23T18:18:59;3.10;99.90
53208;DHT22;39093;52.788;6.940;2023-01-23T18:21:27;3.10;99.90
53208;DHT22;39093;52.788;6.940;2023-01-23T18:23:54;3.00;99.90
53208;DHT22;39093;52.788;6.940;2023-01-23T18:26:40;3.10;99.90